sensor_id;sensor_type;location;lat;lon;timestamp;temperature;humidity
19665;DHT22;9980;51.020;7.772;2024-01-30T00:00:34;4.90;99.90
19665;DHT22;9980;51.020;7.772;2024-01-30T00:03:00;4.90;99.90
19665;DHT22;9980;51.020;7.772;2024-01-30T00:05:28;4.90;99.90
19665;DHT22;9980;51.020;7.772;2024-01-30T00:07:55;4.80;99.90
19665;DHT22;9980;51.020;7.772;2024-01-30T00:10:22;4.80;99.90
19665;DHT22;9980;51.020;7.772;2024-01-30T00:12:49;4.80;99.90
19665;DHT22;9980;51.020;7.772;2024-01-30T00:15:15;4.80;99.90
19665;DHT22;9980;51.020;7.772;2024-01-30T00:17:42;4.80;99.90
19665;DHT22;9980;51.020;7.772;2024-01-30T00:20:10;4.80;99.90
19665;DHT22;9980;51.020;7.772;2024-01-30T00:22:37;4.80;99.90
19665;DHT22;9980;51.020;7.772;2024-01-30T00:25:04;4.80;99.90
19665;DHT22;9980;51.020;7.772;2024-01-30T00:27:31;4.70;99.90
19665;DHT22;9980;51.020;7.772;2024-01-30T00:29:58;4.70;99.90
19665;DHT22;9980;51.020;7.772;2024-01-30T00:32:25;4.70;99.90
19665;DHT22;9980;51.020;7.772;2024-01-30T00:34:52;4.70;99.90
19665;DHT22;9980;51.020;7.772;2024-01-30T00:37:19;4.70;99.90
19665;DHT22;9980;51.020;7.772;2024-01-30T00:39:46;4.70;99.90
19665;DHT22;9980;51.020;7.772;2024-01-30T00:42:13;4.70;99.90
19665;DHT22;9980;51.020;7.772;2024-01-30T00:44:40;4.70;99.90
19665;DHT22;9980;51.020;7.772;2024-01-30T00:47:07;4.70;99.90
19665;DHT22;9980;51.020;7.772;2024-01-30T00:49:34;4.60;99.90
19665;DHT22;9980;51.020;7.772;2024-01-30T00:52:01;4.60;99.90
19665;DHT22;9980;51.020;7.772;2024-01-30T00:54:29;4.60;99.90
19665;DHT22;9980;51.020;7.772;2024-01-30T00:56:56;4.60;99.90
19665;DHT22;9980;51.020;7.772;2024-01-30T00:59:23;4.60;99.90
19665;DHT22;9980;51.020;7.772;2024-01-30T01:01:50;4.60;99.90
19665;DHT22;9980;51.020;7.772;2024-01-30T01:04:18;4.60;99.90
19665;DHT22;9980;51.020;7.772;2024-01-30T01:06:45;4.60;99.90
19665;DHT22;9980;51.020;7.772;2024-01-30T01:09:12;4.50;99.90
19665;DHT22;9980;51.020;7.772;2024-01-30T01:11:39;4.50;99.90
19665;DHT22;9980;51.020;7.772;2024-01-30T01:14:06;4.50;99.90
19665;DHT22;9980;51.020;7.772;2024-01-30T01:16:33;4.50;99.90
19665;DHT22;9980;51.020;7.772;2024-01-30T01:19:00;4.50;99.90
19665;DHT22;9980;51.020;7.772;2024-01-30T01:21:28;4.50;99.90
19665;DHT22;9980;51.020;7.772;2024-01-30T01:23:55;4.50;99.90
19665;DHT22;9980;51.020;7.772;2024-01-30T01:26:23;4.40;99.90
19665;DHT22;9980;51.020;7.772;2024-01-30T01:28:50;4.50;99.90
19665;DHT22;9980;51.020;7.772;2024-01-30T01:31:17;4.40;99.90
19665;DHT22;9980;51.020;7.772;2024-01-30T01:33:44;4.40;99.90
19665;DHT22;9980;51.020;7.772;2024-01-30T01:36:13;4.40;99.90
19665;DHT22;9980;51.020;7.772;2024-01-30T01:38:40;4.40;99.90
19665;DHT22;9980;51.020;7.772;2024-01-30T01:41:07;4.40;99.90
19665;DHT22;9980;51.020;7.772;2024-01-30T01:43:34;4.40;99.90
19665;DHT22;9980;51.020;7.772;2024-01-30T01:46:01;4.30;99.90
19665;DHT22;9980;51.020;7.772;2024-01-30T01:48:29;4.30;99.90
19665;DHT22;9980;51.020;7.772;2024-01-30T01:50:56;4.30;99.90
19665;DHT22;9980;51.020;7.772;2024-01-30T01:53:25;4.30;99.90
19665;DHT22;9980;51.020;7.772;2024-01-30T01:55:52;4.30;99.90
19665;DHT22;9980;51.020;7.772;2024-01-30T01:58:21;4.30;99.90
19665;DHT22;9980;51.020;7.772;2024-01-30T02:00:50;4.20;99.90
19665;DHT22;9980;51.020;7.772;2024-01-30T02:03:18;4.20;99.90
19665;DHT22;9980;51.020;7.772;2024-01-30T02:05:50;4.20;99.90
19665;DHT22;9980;51.020;7.772;2024-01-30T02:08:17;4.20;99.90
19665;DHT22;9980;51.020;7.772;2024-01-30T02:10:44;4.20;99.90
19665;DHT22;9980;51.020;7.772;2024-01-30T02:13:11;4.20;99.90
19665;DHT22;9980;51.020;7.772;2024-01-30T02:15:38;4.20;99.90
19665;DHT22;9980;51.020;7.772;2024-01-30T02:18:05;4.20;99.90
19665;DHT22;9980;51.020;7.772;2024-01-30T02:20:34;4.20;99.90
19665;DHT22;9980;51.020;7.772;2024-01-30T02:23:02;4.20;99.90
19665;DHT22;9980;51.020;7.772;2024-01-30T02:25:32;4.20;99.90
19665;DHT22;9980;51.020;7.772;2024-01-30T02:28:00;4.20;99.90
19665;DHT22;9980;51.020;7.772;2024-01-30T02:30:27;4.20;99.90
19665;DHT22;9980;51.020;7.772;2024-01-30T02:32:53;4.20;99.90
19665;DHT22;9980;51.020;7.772;2024-01-30T02:35:21;4.10;99.90
19665;DHT22;9980;51.020;7.772;2024-01-30T02:37:48;4.10;99.90
19665;DHT22;9980;51.020;7.772;2024-01-30T02:40:15;4.10;99.90
19665;DHT22;9980;51.020;7.772;2024-01-30T02:42:42;4.10;99.90
19665;DHT22;9980;51.020;7.772;2024-01-30T02:45:09;4.10;99.90
19665;DHT22;9980;51.020;7.772;2024-01-30T02:47:36;4.10;99.90
19665;DHT22;9980;51.020;7.772;2024-01-30T02:50:04;4.10;99.90
19665;DHT22;9980;51.020;7.772;2024-01-30T02:52:31;4.10;99.90
19665;DHT22;9980;51.020;7.772;2024-01-30T02:54:58;4.10;99.90
19665;DHT22;9980;51.020;7.772;2024-01-30T02:57:25;4.10;99.90
19665;DHT22;9980;51.020;7.772;2024-01-30T02:59:52;4.10;99.90
19665;DHT22;9980;51.020;7.772;2024-01-30T03:02:19;4.10;99.90
19665;DHT22;9980;51.020;7.772;2024-01-30T03:04:46;4.10;99.90
19665;DHT22;9980;51.020;7.772;2024-01-30T03:07:13;4.10;99.90
19665;DHT22;9980;51.020;7.772;2024-01-30T03:09:41;4.10;99.90
19665;DHT22;9980;51.020;7.772;2024-01-30T03:12:11;4.00;99.90
19665;DHT22;9980;51.020;7.772;2024-01-30T03:14:38;4.10;99.90
19665;DHT22;9980;51.020;7.772;2024-01-30T03:17:05;4.00;99.90
19665;DHT22;9980;51.020;7.772;2024-01-30T03:19:32;4.00;99.90
19665;DHT22;9980;51.020;7.772;2024-01-30T03:21:59;4.00;99.90
19665;DHT22;9980;51.020;7.772;2024-01-30T03:24:26;4.00;99.90
19665;DHT22;9980;51.020;7.772;2024-01-30T03:26:53;4.00;99.90
19665;DHT22;9980;51.020;7.772;2024-01-30T03:29:20;4.00;99.90
19665;DHT22;9980;51.020;7.772;2024-01-30T03:31:47;4.00;99.90
19665;DHT22;9980;51.020;7.772;2024-01-30T03:34:14;4.00;99.90
19665;DHT22;9980;51.020;7.772;2024-01-30T03:36:41;4.00;99.90
19665;DHT22;9980;51.020;7.772;2024-01-30T03:39:08;4.00;99.90
19665;DHT22;9980;51.020;7.772;2024-01-30T03:41:35;4.00;99.90
19665;DHT22;9980;51.020;7.772;2024-01-30T03:44:02;4.00;99.90
19665;DHT22;9980;51.020;7.772;2024-01-30T03:46:29;4.00;99.90
19665;DHT22;9980;51.020;7.772;2024-01-30T03:48:56;4.00;99.90
19665;DHT22;9980;51.020;7.772;2024-01-30T03:51:23;4.00;99.90
19665;DHT22;9980;51.020;7.772;2024-01-30T03:53:49;4.00;99.90
19665;DHT22;9980;51.020;7.772;2024-01-30T03:56:16;3.90;99.90
19665;DHT22;9980;51.020;7.772;2024-01-30T03:58:43;3.90;99.90
19665;DHT22;9980;51.020;7.772;2024-01-30T04:01:14;3.90;99.90
19665;DHT22;9980;51.020;7.772;2024-01-30T04:03:41;3.90;99.90
19665;DHT22;9980;51.020;7.772;2024-01-30T04:06:10;3.90;99.90
19665;DHT22;9980;51.020;7.772;2024-01-30T04:08:37;3.90;99.90
19665;DHT22;9980;51.020;7.772;2024-01-30T04:11:05;3.90;99.90
19665;DHT22;9980;51.020;7.772;2024-01-30T04:13:33;3.90;99.90
19665;DHT22;9980;51.020;7.772;2024-01-30T04:16:00;3.90;99.90
19665;DHT22;9980;51.020;7.772;2024-01-30T04:18:30;3.90;99.90
19665;DHT22;9980;51.020;7.772;2024-01-30T04:20:57;3.90;99.90
19665;DHT22;9980;51.020;7.772;2024-01-30T04:23:24;3.90;99.90
19665;DHT22;9980;51.020;7.772;2024-01-30T04:25:51;3.80;99.90
19665;DHT22;9980;51.020;7.772;2024-01-30T04:28:18;3.80;99.90
19665;DHT22;9980;51.020;7.772;2024-01-30T04:30:45;3.80;99.90
19665;DHT22;9980;51.020;7.772;2024-01-30T04:33:12;3.80;99.90
19665;DHT22;9980;51.020;7.772;2024-01-30T04:35:39;3.80;99.90
19665;DHT22;9980;51.020;7.772;2024-01-30T04:38:06;3.80;99.90
19665;DHT22;9980;51.020;7.772;2024-01-30T04:40:33;3.80;99.90
19665;DHT22;9980;51.020;7.772;2024-01-30T04:43:00;3.80;99.90
19665;DHT22;9980;51.020;7.772;2024-01-30T04:45:27;3.80;99.90
19665;DHT22;9980;51.020;7.772;2024-01-30T04:47:54;3.70;99.90
19665;DHT22;9980;51.020;7.772;2024-01-30T04:50:21;3.70;99.90
19665;DHT22;9980;51.020;7.772;2024-01-30T04:52:47;3.70;99.90
19665;DHT22;9980;51.020;7.772;2024-01-30T04:55:14;3.70;99.90
19665;DHT22;9980;51.020;7.772;2024-01-30T04:57:41;3.70;99.90
19665;DHT22;9980;51.020;7.772;2024-01-30T05:00:09;3.70;99.90
19665;DHT22;9980;51.020;7.772;2024-01-30T05:02:36;3.70;99.90
19665;DHT22;9980;51.020;7.772;2024-01-30T05:05:03;3.70;99.90
19665;DHT22;9980;51.020;7.772;2024-01-30T05:07:30;3.60;99.90
19665;DHT22;9980;51.020;7.772;2024-01-30T05:09:57;3.60;99.90
19665;DHT22;9980;51.020;7.772;2024-01-30T05:12:26;3.60;99.90
19665;DHT22;9980;51.020;7.772;2024-01-30T05:14:53;3.60;99.90
19665;DHT22;9980;51.020;7.772;2024-01-30T05:17:20;3.60;99.90
19665;DHT22;9980;51.020;7.772;2024-01-30T05:19:47;3.60;99.90
19665;DHT22;9980;51.020;7.772;2024-01-30T05:22:14;3.60;99.90
19665;DHT22;9980;51.020;7.772;2024-01-30T05:24:42;3.60;99.90
19665;DHT22;9980;51.020;7.772;2024-01-30T05:27:09;3.50;99.90
19665;DHT22;9980;51.020;7.772;2024-01-30T05:29:36;3.50;99.90
19665;DHT22;9980;51.020;7.772;2024-01-30T05:32:03;3.50;99.90
19665;DHT22;9980;51.020;7.772;2024-01-30T05:34:32;3.50;99.90
19665;DHT22;9980;51.020;7.772;2024-01-30T05:36:59;3.50;99.90
19665;DHT22;9980;51.020;7.772;2024-01-30T05:39:26;3.50;99.90
19665;DHT22;9980;51.020;7.772;2024-01-30T05:41:53;3.50;99.90
19665;DHT22;9980;51.020;7.772;2024-01-30T05:44:20;3.50;99.90
19665;DHT22;9980;51.020;7.772;2024-01-30T05:46:47;3.50;99.90
19665;DHT22;9980;51.020;7.772;2024-01-30T05:49:14;3.40;99.90
19665;DHT22;9980;51.020;7.772;2024-01-30T05:51:41;3.40;99.90
19665;DHT22;9980;51.020;7.772;2024-01-30T05:54:08;3.40;99.90
19665;DHT22;9980;51.020;7.772;2024-01-30T05:56:35;3.40;99.90
19665;DHT22;9980;51.020;7.772;2024-01-30T05:59:02;3.40;99.90
19665;DHT22;9980;51.020;7.772;2024-01-30T06:01:29;3.40;99.90
19665;DHT22;9980;51.020;7.772;2024-01-30T06:03:56;3.40;99.90
19665;DHT22;9980;51.020;7.772;2024-01-30T06:06:23;3.30;99.90
19665;DHT22;9980;51.020;7.772;2024-01-30T06:08:50;3.30;99.90
19665;DHT22;9980;51.020;7.772;2024-01-30T06:11:16;3.30;99.90
19665;DHT22;9980;51.020;7.772;2024-01-30T06:13:45;3.30;99.90
19665;DHT22;9980;51.020;7.772;2024-01-30T06:16:11;3.30;99.90
19665;DHT22;9980;51.020;7.772;2024-01-30T06:18:39;3.30;99.90
19665;DHT22;9980;51.020;7.772;2024-01-30T06:21:06;3.20;99.90
19665;DHT22;9980;51.020;7.772;2024-01-30T06:23:35;3.20;99.90
19665;DHT22;9980;51.020;7.772;2024-01-30T06:26:02;3.20;99.90
19665;DHT22;9980;51.020;7.772;2024-01-30T06:28:29;3.20;99.90
19665;DHT22;9980;51.020;7.772;2024-01-30T06:30:56;3.20;99.90
19665;DHT22;9980;51.020;7.772;2024-01-30T06:33:24;3.20;99.90
19665;DHT22;9980;51.020;7.772;2024-01-30T06:35:51;3.20;99.90
19665;DHT22;9980;51.020;7.772;2024-01-30T06:38:18;3.20;99.90
19665;DHT22;9980;51.020;7.772;2024-01-30T06:40:45;3.20;99.90
19665;DHT22;9980;51.020;7.772;2024-01-30T06:43:12;3.20;99.90
19665;DHT22;9980;51.020;7.772;2024-01-30T06:45:39;3.20;99.90
19665;DHT22;9980;51.020;7.772;2024-01-30T06:48:07;3.10;99.90
19665;DHT22;9980;51.020;7.772;2024-01-30T06:50:34;3.10;99.90
19665;DHT22;9980;51.020;7.772;2024-01-30T06:53:01;3.10;99.90
19665;DHT22;9980;51.020;7.772;2024-01-30T06:55:29;3.10;99.90
19665;DHT22;9980;51.020;7.772;2024-01-30T06:57:55;3.10;99.90
19665;DHT22;9980;51.020;7.772;2024-01-30T07:00:22;3.10;99.90
19665;DHT22;9980;51.020;7.772;2024-01-30T07:02:50;3.10;99.90
19665;DHT22;9980;51.020;7.772;2024-01-30T07:05:17;3.20;99.90
19665;DHT22;9980;51.020;7.772;2024-01-30T07:07:44;3.10;99.90
19665;DHT22;9980;51.020;7.772;2024-01-30T07:10:11;3.10;99.90
19665;DHT22;9980;51.020;7.772;2024-01-30T07:12:38;3.20;99.90
19665;DHT22;9980;51.020;7.772;2024-01-30T07:15:05;3.20;99.90
19665;DHT22;9980;51.020;7.772;2024-01-30T07:17:35;3.20;99.90
19665;DHT22;9980;51.020;7.772;2024-01-30T07:20:02;3.20;99.90
19665;DHT22;9980;51.020;7.772;2024-01-30T07:22:33;3.20;99.90
19665;DHT22;9980;51.020;7.772;2024-01-30T07:25:00;3.20;99.90
19665;DHT22;9980;51.020;7.772;2024-01-30T07:27:27;3.20;99.90
19665;DHT22;9980;51.020;7.772;2024-01-30T07:29:54;3.20;99.90
19665;DHT22;9980;51.020;7.772;2024-01-30T07:32:21;3.30;99.90
19665;DHT22;9980;51.020;7.772;2024-01-30T07:34:48;3.30;99.90
19665;DHT22;9980;51.020;7.772;2024-01-30T07:37:32;3.30;99.90
19665;DHT22;9980;51.020;7.772;2024-01-30T07:40:00;3.30;99.90
19665;DHT22;9980;51.020;7.772;2024-01-30T07:42:28;3.30;99.90
19665;DHT22;9980;51.020;7.772;2024-01-30T07:44:55;3.30;99.90
19665;DHT22;9980;51.020;7.772;2024-01-30T07:47:21;3.40;99.90
19665;DHT22;9980;51.020;7.772;2024-01-30T07:49:48;3.40;99.90
19665;DHT22;9980;51.020;7.772;2024-01-30T07:52:16;3.40;99.90
19665;DHT22;9980;51.020;7.772;2024-01-30T07:54:43;3.40;99.90
19665;DHT22;9980;51.020;7.772;2024-01-30T07:57:10;3.50;99.90
19665;DHT22;9980;51.020;7.772;2024-01-30T07:59:37;3.50;99.90
19665;DHT22;9980;51.020;7.772;2024-01-30T08:02:04;3.50;99.90
19665;DHT22;9980;51.020;7.772;2024-01-30T08:04:31;3.60;99.90
19665;DHT22;9980;51.020;7.772;2024-01-30T08:06:58;3.60;99.90
19665;DHT22;9980;51.020;7.772;2024-01-30T08:09:25;3.70;99.90
19665;DHT22;9980;51.020;7.772;2024-01-30T08:11:51;3.70;99.90
19665;DHT22;9980;51.020;7.772;2024-01-30T08:14:18;3.70;99.90
19665;DHT22;9980;51.020;7.772;2024-01-30T08:16:45;3.80;99.90
19665;DHT22;9980;51.020;7.772;2024-01-30T08:19:14;3.80;99.90
19665;DHT22;9980;51.020;7.772;2024-01-30T08:21:42;3.90;99.90
19665;DHT22;9980;51.020;7.772;2024-01-30T08:24:08;3.90;99.90
19665;DHT22;9980;51.020;7.772;2024-01-30T08:26:35;4.00;99.90
19665;DHT22;9980;51.020;7.772;2024-01-30T08:29:03;4.10;99.90
19665;DHT22;9980;51.020;7.772;2024-01-30T08:31:30;4.10;99.90
19665;DHT22;9980;51.020;7.772;2024-01-30T08:33:57;4.20;99.90
19665;DHT22;9980;51.020;7.772;2024-01-30T08:36:25;4.30;99.90
19665;DHT22;9980;51.020;7.772;2024-01-30T08:38:52;4.30;99.90
19665;DHT22;9980;51.020;7.772;2024-01-30T08:41:26;4.40;99.90
19665;DHT22;9980;51.020;7.772;2024-01-30T08:43:53;4.50;99.90
19665;DHT22;9980;51.020;7.772;2024-01-30T08:46:20;4.60;99.90
19665;DHT22;9980;51.020;7.772;2024-01-30T08:48:47;4.60;99.90
19665;DHT22;9980;51.020;7.772;2024-01-30T08:51:14;4.70;99.90
19665;DHT22;9980;51.020;7.772;2024-01-30T08:53:42;4.80;99.90
19665;DHT22;9980;51.020;7.772;2024-01-30T08:56:09;4.90;99.90
19665;DHT22;9980;51.020;7.772;2024-01-30T08:58:36;5.00;99.90
19665;DHT22;9980;51.020;7.772;2024-01-30T09:01:03;5.00;99.90
19665;DHT22;9980;51.020;7.772;2024-01-30T09:03:32;5.10;99.90
19665;DHT22;9980;51.020;7.772;2024-01-30T09:05:59;5.20;99.90
19665;DHT22;9980;51.020;7.772;2024-01-30T09:08:26;5.30;99.90
19665;DHT22;9980;51.020;7.772;2024-01-30T09:10:52;5.40;99.90
19665;DHT22;9980;51.020;7.772;2024-01-30T09:13:20;5.50;99.90
19665;DHT22;9980;51.020;7.772;2024-01-30T09:15:47;5.70;99.90
19665;DHT22;9980;51.020;7.772;2024-01-30T09:18:14;5.80;99.90
19665;DHT22;9980;51.020;7.772;2024-01-30T09:20:41;5.90;99.90
19665;DHT22;9980;51.020;7.772;2024-01-30T09:23:07;6.00;99.90
19665;DHT22;9980;51.020;7.772;2024-01-30T09:25:34;6.10;99.90
19665;DHT22;9980;51.020;7.772;2024-01-30T09:28:01;6.30;99.90
19665;DHT22;9980;51.020;7.772;2024-01-30T09:30:28;6.40;99.90
19665;DHT22;9980;51.020;7.772;2024-01-30T09:32:55;6.50;99.90
19665;DHT22;9980;51.020;7.772;2024-01-30T09:35:22;6.70;99.90
19665;DHT22;9980;51.020;7.772;2024-01-30T09:37:49;6.80;99.90
19665;DHT22;9980;51.020;7.772;2024-01-30T09:40:18;6.90;99.90
19665;DHT22;9980;51.020;7.772;2024-01-30T09:42:47;7.10;99.90
19665;DHT22;9980;51.020;7.772;2024-01-30T09:45:23;7.20;99.90
19665;DHT22;9980;51.020;7.772;2024-01-30T09:47:52;7.30;99.90
19665;DHT22;9980;51.020;7.772;2024-01-30T09:50:20;7.40;99.90
19665;DHT22;9980;51.020;7.772;2024-01-30T09:52:47;7.50;99.90
19665;DHT22;9980;51.020;7.772;2024-01-30T09:55:15;7.60;99.90
19665;DHT22;9980;51.020;7.772;2024-01-30T09:57:42;7.70;99.90
19665;DHT22;9980;51.020;7.772;2024-01-30T10:00:09;7.80;99.90
19665;DHT22;9980;51.020;7.772;2024-01-30T10:02:39;7.90;99.90
19665;DHT22;9980;51.020;7.772;2024-01-30T10:05:08;8.00;99.90
19665;DHT22;9980;51.020;7.772;2024-01-30T10:07:35;8.20;99.90
19665;DHT22;9980;51.020;7.772;2024-01-30T10:10:04;8.30;99.90
19665;DHT22;9980;51.020;7.772;2024-01-30T10:12:32;8.40;99.90
19665;DHT22;9980;51.020;7.772;2024-01-30T10:14:59;8.60;99.90
19665;DHT22;9980;51.020;7.772;2024-01-30T10:17:26;8.70;99.90
19665;DHT22;9980;51.020;7.772;2024-01-30T10:19:59;8.80;99.90
19665;DHT22;9980;51.020;7.772;2024-01-30T10:22:30;8.90;99.90
19665;DHT22;9980;51.020;7.772;2024-01-30T10:24:59;9.00;99.90
19665;DHT22;9980;51.020;7.772;2024-01-30T10:27:31;9.10;99.90
19665;DHT22;9980;51.020;7.772;2024-01-30T10:29:59;9.20;99.90
19665;DHT22;9980;51.020;7.772;2024-01-30T10:32:27;9.30;99.90
19665;DHT22;9980;51.020;7.772;2024-01-30T10:34:54;9.50;99.90
19665;DHT22;9980;51.020;7.772;2024-01-30T10:37:25;9.50;99.90
19665;DHT22;9980;51.020;7.772;2024-01-30T10:39:54;9.70;99.90
19665;DHT22;9980;51.020;7.772;2024-01-30T10:42:26;9.80;99.90
19665;DHT22;9980;51.020;7.772;2024-01-30T10:45:00;9.90;99.90
19665;DHT22;9980;51.020;7.772;2024-01-30T10:47:34;10.00;99.90
19665;DHT22;9980;51.020;7.772;2024-01-30T10:50:05;10.10;99.90
19665;DHT22;9980;51.020;7.772;2024-01-30T10:52:35;10.10;99.90
19665;DHT22;9980;51.020;7.772;2024-01-30T10:55:04;10.20;99.90
19665;DHT22;9980;51.020;7.772;2024-01-30T10:57:34;10.30;99.90
19665;DHT22;9980;51.020;7.772;2024-01-30T11:00:08;10.40;99.90
19665;DHT22;9980;51.020;7.772;2024-01-30T11:02:39;10.50;99.90
19665;DHT22;9980;51.020;7.772;2024-01-30T11:05:08;10.50;99.90
19665;DHT22;9980;51.020;7.772;2024-01-30T11:07:35;10.70;99.90
19665;DHT22;9980;51.020;7.772;2024-01-30T11:10:03;10.70;99.90
19665;DHT22;9980;51.020;7.772;2024-01-30T11:12:32;10.80;99.90
19665;DHT22;9980;51.020;7.772;2024-01-30T11:15:07;10.90;99.90
19665;DHT22;9980;51.020;7.772;2024-01-30T11:20:30;11.00;99.90
19665;DHT22;9980;51.020;7.772;2024-01-30T11:22:59;11.10;99.90
19665;DHT22;9980;51.020;7.772;2024-01-30T11:25:28;11.10;99.90
19665;DHT22;9980;51.020;7.772;2024-01-30T11:27:58;11.20;99.90
19665;DHT22;9980;51.020;7.772;2024-01-30T11:30:30;11.30;99.90
19665;DHT22;9980;51.020;7.772;2024-01-30T11:33:06;11.40;99.90
19665;DHT22;9980;51.020;7.772;2024-01-30T11:35:36;11.50;99.90
19665;DHT22;9980;51.020;7.772;2024-01-30T11:38:13;11.60;99.90
19665;DHT22;9980;51.020;7.772;2024-01-30T11:40:41;11.70;99.90
19665;DHT22;9980;51.020;7.772;2024-01-30T11:43:10;11.80;99.90
19665;DHT22;9980;51.020;7.772;2024-01-30T11:45:38;11.90;99.90
19665;DHT22;9980;51.020;7.772;2024-01-30T11:48:06;12.00;99.90
19665;DHT22;9980;51.020;7.772;2024-01-30T11:50:38;12.00;99.90
19665;DHT22;9980;51.020;7.772;2024-01-30T11:53:07;12.10;99.90
19665;DHT22;9980;51.020;7.772;2024-01-30T11:55:34;12.20;99.90
19665;DHT22;9980;51.020;7.772;2024-01-30T11:58:04;12.30;99.90
19665;DHT22;9980;51.020;7.772;2024-01-30T12:00:31;12.40;99.90
19665;DHT22;9980;51.020;7.772;2024-01-30T12:02:59;12.50;99.90
19665;DHT22;9980;51.020;7.772;2024-01-30T12:05:28;12.60;99.90
19665;DHT22;9980;51.020;7.772;2024-01-30T12:07:55;12.60;99.90
19665;DHT22;9980;51.020;7.772;2024-01-30T12:10:26;12.70;99.90
19665;DHT22;9980;51.020;7.772;2024-01-30T12:12:53;12.70;99.90
19665;DHT22;9980;51.020;7.772;2024-01-30T12:15:22;12.70;99.90
19665;DHT22;9980;51.020;7.772;2024-01-30T12:17:49;12.80;99.90
19665;DHT22;9980;51.020;7.772;2024-01-30T12:20:19;12.90;99.90
19665;DHT22;9980;51.020;7.772;2024-01-30T12:22:49;12.90;99.90
19665;DHT22;9980;51.020;7.772;2024-01-30T12:25:18;13.00;99.90
19665;DHT22;9980;51.020;7.772;2024-01-30T12:27:49;13.00;99.90
19665;DHT22;9980;51.020;7.772;2024-01-30T12:30:20;13.00;99.90
19665;DHT22;9980;51.020;7.772;2024-01-30T12:32:50;13.10;99.90
19665;DHT22;9980;51.020;7.772;2024-01-30T12:35:19;13.10;99.90
19665;DHT22;9980;51.020;7.772;2024-01-30T12:37:48;13.10;99.90
19665;DHT22;9980;51.020;7.772;2024-01-30T12:40:17;13.10;99.90
19665;DHT22;9980;51.020;7.772;2024-01-30T12:42:46;13.10;99.90
19665;DHT22;9980;51.020;7.772;2024-01-30T12:45:17;13.20;99.90
19665;DHT22;9980;51.020;7.772;2024-01-30T12:47:49;13.20;99.90
19665;DHT22;9980;51.020;7.772;2024-01-30T12:50:17;13.20;99.90
19665;DHT22;9980;51.020;7.772;2024-01-30T12:52:45;13.20;99.90
19665;DHT22;9980;51.020;7.772;2024-01-30T12:55:16;13.30;99.90
19665;DHT22;9980;51.020;7.772;2024-01-30T12:57:44;13.30;99.90
19665;DHT22;9980;51.020;7.772;2024-01-30T13:00:11;13.40;99.90
19665;DHT22;9980;51.020;7.772;2024-01-30T13:02:38;13.40;99.90
19665;DHT22;9980;51.020;7.772;2024-01-30T13:05:05;13.50;99.90
19665;DHT22;9980;51.020;7.772;2024-01-30T13:07:34;13.50;99.90
19665;DHT22;9980;51.020;7.772;2024-01-30T13:10:02;13.60;99.90
19665;DHT22;9980;51.020;7.772;2024-01-30T13:12:31;13.60;99.90
19665;DHT22;9980;51.020;7.772;2024-01-30T13:14:59;13.70;99.90
19665;DHT22;9980;51.020;7.772;2024-01-30T13:17:28;13.70;99.90
19665;DHT22;9980;51.020;7.772;2024-01-30T13:19:55;13.70;99.90
19665;DHT22;9980;51.020;7.772;2024-01-30T13:22:28;13.80;99.90
19665;DHT22;9980;51.020;7.772;2024-01-30T13:24:55;13.80;99.90
19665;DHT22;9980;51.020;7.772;2024-01-30T13:27:22;13.90;99.90
19665;DHT22;9980;51.020;7.772;2024-01-30T13:29:49;13.90;99.90
19665;DHT22;9980;51.020;7.772;2024-01-30T13:32:16;14.00;99.90
19665;DHT22;9980;51.020;7.772;2024-01-30T13:34:43;14.00;99.90
19665;DHT22;9980;51.020;7.772;2024-01-30T13:37:10;14.00;99.90
19665;DHT22;9980;51.020;7.772;2024-01-30T13:39:37;14.00;99.90
19665;DHT22;9980;51.020;7.772;2024-01-30T13:42:05;14.10;99.90
19665;DHT22;9980;51.020;7.772;2024-01-30T13:44:32;14.10;99.90
19665;DHT22;9980;51.020;7.772;2024-01-30T13:46:59;14.10;99.90
19665;DHT22;9980;51.020;7.772;2024-01-30T13:49:26;14.10;99.90
19665;DHT22;9980;51.020;7.772;2024-01-30T13:51:55;14.10;99.90
19665;DHT22;9980;51.020;7.772;2024-01-30T13:54:23;14.10;99.90
19665;DHT22;9980;51.020;7.772;2024-01-30T13:56:51;14.10;99.90
19665;DHT22;9980;51.020;7.772;2024-01-30T13:59:18;14.20;99.90
19665;DHT22;9980;51.020;7.772;2024-01-30T14:01:50;14.20;99.90
19665;DHT22;9980;51.020;7.772;2024-01-30T14:04:17;14.20;99.90
19665;DHT22;9980;51.020;7.772;2024-01-30T14:06:44;14.20;99.90
19665;DHT22;9980;51.020;7.772;2024-01-30T14:09:22;14.20;99.90
19665;DHT22;9980;51.020;7.772;2024-01-30T14:11:49;14.10;99.90
19665;DHT22;9980;51.020;7.772;2024-01-30T14:14:16;14.10;99.90
19665;DHT22;9980;51.020;7.772;2024-01-30T14:16:43;14.10;99.90
19665;DHT22;9980;51.020;7.772;2024-01-30T14:19:10;14.10;99.90
19665;DHT22;9980;51.020;7.772;2024-01-30T14:21:37;14.10;99.90
19665;DHT22;9980;51.020;7.772;2024-01-30T14:24:06;14.10;99.90
19665;DHT22;9980;51.020;7.772;2024-01-30T14:26:33;14.10;99.90
19665;DHT22;9980;51.020;7.772;2024-01-30T14:29:00;14.10;99.90
19665;DHT22;9980;51.020;7.772;2024-01-30T14:31:27;14.10;99.90
19665;DHT22;9980;51.020;7.772;2024-01-30T14:33:54;14.10;99.90
19665;DHT22;9980;51.020;7.772;2024-01-30T14:36:22;14.10;99.90
19665;DHT22;9980;51.020;7.772;2024-01-30T14:38:49;14.10;99.90
19665;DHT22;9980;51.020;7.772;2024-01-30T14:41:16;14.10;99.90
19665;DHT22;9980;51.020;7.772;2024-01-30T14:43:42;14.00;99.90
19665;DHT22;9980;51.020;7.772;2024-01-30T14:46:09;14.00;99.90
19665;DHT22;9980;51.020;7.772;2024-01-30T14:48:37;14.00;99.90
19665;DHT22;9980;51.020;7.772;2024-01-30T14:51:04;14.00;99.90
19665;DHT22;9980;51.020;7.772;2024-01-30T14:53:31;14.00;99.90
19665;DHT22;9980;51.020;7.772;2024-01-30T14:55:58;14.00;99.90
19665;DHT22;9980;51.020;7.772;2024-01-30T14:58:25;14.00;99.90
19665;DHT22;9980;51.020;7.772;2024-01-30T15:00:52;13.90;99.90
19665;DHT22;9980;51.020;7.772;2024-01-30T15:03:19;13.90;99.90
19665;DHT22;9980;51.020;7.772;2024-01-30T15:05:52;13.90;99.90
19665;DHT22;9980;51.020;7.772;2024-01-30T15:08:21;13.90;99.90
19665;DHT22;9980;51.020;7.772;2024-01-30T15:10:48;13.90;99.90
19665;DHT22;9980;51.020;7.772;2024-01-30T15:13:17;13.90;99.90
19665;DHT22;9980;51.020;7.772;2024-01-30T15:15:44;13.90;99.90
19665;DHT22;9980;51.020;7.772;2024-01-30T15:18:11;13.80;99.90
19665;DHT22;9980;51.020;7.772;2024-01-30T15:20:38;13.80;99.90
19665;DHT22;9980;51.020;7.772;2024-01-30T15:23:05;13.80;99.90
19665;DHT22;9980;51.020;7.772;2024-01-30T15:25:32;13.80;99.90
19665;DHT22;9980;51.020;7.772;2024-01-30T15:27:59;13.80;99.90
19665;DHT22;9980;51.020;7.772;2024-01-30T15:30:26;13.80;99.90
19665;DHT22;9980;51.020;7.772;2024-01-30T15:32:53;13.70;99.90
19665;DHT22;9980;51.020;7.772;2024-01-30T15:35:20;13.70;99.90
19665;DHT22;9980;51.020;7.772;2024-01-30T15:37:48;13.70;99.90
19665;DHT22;9980;51.020;7.772;2024-01-30T15:40:15;13.70;99.90
19665;DHT22;9980;51.020;7.772;2024-01-30T15:42:42;13.60;99.90
19665;DHT22;9980;51.020;7.772;2024-01-30T15:45:10;13.60;99.90
19665;DHT22;9980;51.020;7.772;2024-01-30T15:47:36;13.60;99.90
19665;DHT22;9980;51.020;7.772;2024-01-30T15:50:04;13.60;99.90
19665;DHT22;9980;51.020;7.772;2024-01-30T15:52:32;13.50;99.90
19665;DHT22;9980;51.020;7.772;2024-01-30T15:54:59;13.50;99.90
19665;DHT22;9980;51.020;7.772;2024-01-30T15:57:26;13.50;99.90
19665;DHT22;9980;51.020;7.772;2024-01-30T15:59:55;13.50;99.90
19665;DHT22;9980;51.020;7.772;2024-01-30T16:02:22;13.50;99.90